Torrington, WY

1:37 PM MDT on July 27, 2016 (GMT -0600)
Torrington Municipal | | Change Station

Elev 4206 ft 42.06 °N, 104.15 °W | Updated 44 minutes ago

Clear
Clear
84 °F
Feels Like 84 °F
N
9
Wind Variable Wind from SSE

Today
High -- | Low -- °F
--% Chance of Precip.
Yesterday
High -- | Low -- °F
Precip. -- in
Pressure 29.98 in
Visibility 10.0 miles
Clouds Clear
Dew Point 51 °F
Humidity 32%
Rainfall 0.02 in
Snow Depth Not available.
5:45 AM 8:20 PM
Last Quarter, 40% visible
METAR KTOR 271853Z AUTO 15008KT 10SM CLR 29/11 A3013 RMK AO2 SLP151 T02890106 TSNO
Pressure 29.98 in
Visibility 10.0 miles
Clouds Clear
Dew Point 51 °F
Humidity 32%
Rainfall 0.02 in
Snow Depth Not available.
5:45 AM 8:20 PM
Last Quarter, 40% visible
METAR KTOR 271853Z AUTO 15008KT 10SM CLR 29/11 A3013 RMK AO2 SLP151 T02890106 TSNO

10-Day Weather Forecast

Almanac

Astronomy

Jul. 27, 2016 Rise Set
Actual Time
Civil Twilight
Nautical Twilight
Astronomical Twilight
Moon
Length of Visible Light
Length of Day
Tomorrow will be .
, % of the Moon is Illuminated

Today's Extremes

State Highs State Lows

Community

WunderPhotos

Upload Photos

1,927,916 photos uploaded!

WunderBlog® & News

Nearby

Air Quality

  Air Quality AQ Index Pollutant
Not available.

Snow Depth

Station Depth Elevation

Earthquake Activity

City Distance Mag. Time & Date
Minimum magnitude displayed is 2.5.

Coastal Water Temperatures

Place Temperature

Stations

Nearby Weather Stations

Station Location Temp. Windchill Dew Point Humidity Wind Precip. Elev Updated Type
                   

Watches & Warnings

There are currently no watches in effect.